createdAt,value
2023-03-01T20:01:21.411Z,34.76
2023-03-01T20:02:25.268Z,34.72
2023-03-01T20:03:30.517Z,34.72
2023-03-01T20:04:34.214Z,34.72
2023-03-01T20:05:38.531Z,34.71
2023-03-01T20:06:42.142Z,34.71
2023-03-01T20:07:45.814Z,34.70
2023-03-01T20:08:49.616Z,34.69
2023-03-01T20:09:53.610Z,34.69
2023-03-01T20:11:03.348Z,34.71
2023-03-01T20:12:07.337Z,34.73
2023-03-01T20:13:11.043Z,34.72
2023-03-01T20:14:14.719Z,34.72
2023-03-01T20:15:18.519Z,34.72
2023-03-01T20:16:23.892Z,34.72
2023-03-01T20:17:27.542Z,34.71
2023-03-01T20:18:31.496Z,34.71
2023-03-01T20:19:35.220Z,34.70
2023-03-01T20:20:38.885Z,34.71
2023-03-01T20:21:42.586Z,34.71
2023-03-01T20:22:46.309Z,34.73
2023-03-01T20:23:50.016Z,34.74
2023-03-01T20:24:53.705Z,34.71
2023-03-01T20:26:04.449Z,34.73
2023-03-01T20:27:08.158Z,34.73
2023-03-01T20:28:11.859Z,34.73
2023-03-01T20:29:15.603Z,34.73
2023-03-01T20:30:19.508Z,34.72
2023-03-01T20:31:25.955Z,34.72
2023-03-01T20:32:29.774Z,34.71
2023-03-01T20:33:33.612Z,34.66
2023-03-01T20:34:38.620Z,34.71
2023-03-01T20:35:44.911Z,34.69
2023-03-01T20:36:48.554Z,34.71
2023-03-01T20:37:53.207Z,34.70
2023-03-01T20:38:57.288Z,34.68
2023-03-01T20:40:00.879Z,34.71
2023-03-01T20:41:08.546Z,34.71
2023-03-01T20:42:12.158Z,34.69
2023-03-01T20:43:15.821Z,34.70
2023-03-01T20:44:19.520Z,34.33
2023-03-01T20:45:23.556Z,34.73
2023-03-01T20:46:29.074Z,34.70
2023-03-01T20:47:32.847Z,34.71
2023-03-01T20:48:36.574Z,34.64
2023-03-01T20:49:40.250Z,34.68
2023-03-01T20:50:44.027Z,34.65
2023-03-01T20:51:47.672Z,34.61
2023-03-01T20:52:51.320Z,34.55
2023-03-01T20:53:54.940Z,34.54
2023-03-01T20:54:58.512Z,34.52
2023-03-01T20:56:04.063Z,34.51
2023-03-01T20:57:07.712Z,34.51
2023-03-01T20:58:11.446Z,34.52
2023-03-01T20:59:15.124Z,34.51
2023-03-01T21:00:19.403Z,34.52
2023-03-01T21:01:23.031Z,34.53
2023-03-01T21:02:28.387Z,34.52
2023-03-01T21:03:32.434Z,34.54
2023-03-01T21:04:36.147Z,34.55
2023-03-01T21:05:39.840Z,34.55
2023-03-01T21:06:43.420Z,34.54
2023-03-01T21:07:47.257Z,34.51
2023-03-01T21:08:50.892Z,34.57
2023-03-01T21:09:54.618Z,34.56
2023-03-01T21:10:58.839Z,34.57
2023-03-01T21:12:02.497Z,34.57
2023-03-01T21:13:06.117Z,34.58
2023-03-01T21:14:10.983Z,34.51
2023-03-01T21:15:27.164Z,34.58
2023-03-01T21:16:32.618Z,34.58
2023-03-01T21:17:38.102Z,34.57
2023-03-01T21:18:42.696Z,34.55
2023-03-01T21:19:46.404Z,34.55
2023-03-01T21:20:50.438Z,34.53
2023-03-01T21:21:54.290Z,34.55
2023-03-01T21:22:57.910Z,34.55
2023-03-01T21:24:01.562Z,34.54
2023-03-01T21:25:05.654Z,34.51
2023-03-01T21:26:11.027Z,34.55
2023-03-01T21:27:14.601Z,34.54
2023-03-01T21:28:18.194Z,34.55
2023-03-01T21:29:21.853Z,34.50
2023-03-01T21:30:25.511Z,34.56
2023-03-01T21:31:30.695Z,34.57
2023-03-01T21:32:34.357Z,34.56
2023-03-01T21:33:40.728Z,34.55
2023-03-01T21:34:46.594Z,34.55
2023-03-01T21:35:50.398Z,34.52
2023-03-01T21:36:54.152Z,34.45
2023-03-01T21:37:57.797Z,34.38
2023-03-01T21:39:02.070Z,34.50
2023-03-01T21:40:06.792Z,34.49
2023-03-01T21:41:12.527Z,34.47
2023-03-01T21:42:16.122Z,34.47
2023-03-01T21:43:19.749Z,34.47
2023-03-01T21:44:23.632Z,34.44
2023-03-01T21:45:27.313Z,34.43
2023-03-01T21:46:33.482Z,34.40
2023-03-01T21:47:37.277Z,34.39
2023-03-01T21:48:45.098Z,34.39
2023-03-01T21:49:48.981Z,34.39
2023-03-01T21:50:56.461Z,34.38
2023-03-01T21:52:00.124Z,34.39
2023-03-01T21:53:03.824Z,34.37
2023-03-01T21:54:07.741Z,34.37
2023-03-01T21:55:11.954Z,34.38
2023-03-01T21:56:19.107Z,34.38
2023-03-01T21:57:22.835Z,34.37
2023-03-01T21:58:27.096Z,34.35
2023-03-01T21:59:30.762Z,34.32
2023-03-01T22:00:34.383Z,34.31
2023-03-01T22:01:38.112Z,34.28
2023-03-01T22:02:41.836Z,34.25
2023-03-01T22:03:47.179Z,34.13
2023-03-01T22:04:54.004Z,34.24
2023-03-01T22:05:58.685Z,34.24
2023-03-01T22:07:02.372Z,34.12
2023-03-01T22:08:06.679Z,34.25
2023-03-01T22:09:13.178Z,34.26
2023-03-01T22:10:17.221Z,34.25
2023-03-01T22:11:21.886Z,34.28
2023-03-01T22:12:25.513Z,34.28
2023-03-01T22:13:29.160Z,34.28
2023-03-01T22:14:33.745Z,34.28
2023-03-01T22:15:41.766Z,34.21
2023-03-01T22:16:45.813Z,34.27
2023-03-01T22:17:49.676Z,34.16
2023-03-01T22:18:55.290Z,34.30
2023-03-01T22:19:58.967Z,34.29
2023-03-01T22:21:05.885Z,34.30
2023-03-01T22:22:09.509Z,34.27
2023-03-01T22:23:13.174Z,34.31
2023-03-01T22:24:25.329Z,34.32
2023-03-01T22:25:29.236Z,34.35
2023-03-01T22:26:35.583Z,34.35
2023-03-01T22:27:39.795Z,34.34
2023-03-01T22:28:45.457Z,34.35
2023-03-01T22:29:49.145Z,34.33
2023-03-01T22:30:52.813Z,34.36
2023-03-01T22:31:58.120Z,34.37
2023-03-01T22:33:01.921Z,34.35
2023-03-01T22:34:07.605Z,34.36
2023-03-01T22:35:11.683Z,34.36
2023-03-01T22:36:15.380Z,34.36
2023-03-01T22:37:19.057Z,34.37
2023-03-01T22:38:22.873Z,34.36
2023-03-01T22:39:26.460Z,34.36
2023-03-01T22:40:30.098Z,34.35
2023-03-01T22:41:39.831Z,34.35
2023-03-01T22:42:43.509Z,34.32
2023-03-01T22:43:47.083Z,34.35
2023-03-01T22:44:50.778Z,34.37
2023-03-01T22:45:54.442Z,34.36
2023-03-01T22:46:58.031Z,34.32
2023-03-01T22:48:01.712Z,34.36
2023-03-01T22:49:06.974Z,34.35
2023-03-01T22:50:15.211Z,34.38
2023-03-01T22:51:21.494Z,34.37
2023-03-01T22:52:25.122Z,34.35
2023-03-01T22:53:28.769Z,34.37
2023-03-01T22:54:32.414Z,34.36
2023-03-01T22:55:36.003Z,34.34
2023-03-01T22:56:40.659Z,34.33
2023-03-01T22:57:44.314Z,34.34
2023-03-01T22:58:48.034Z,34.32
2023-03-01T22:59:51.619Z,34.33
2023-03-01T23:00:55.197Z,34.35
2023-03-01T23:01:58.885Z,34.34
2023-03-01T23:03:03.108Z,34.35
2023-03-01T23:04:08.889Z,34.34
2023-03-01T23:05:12.641Z,34.34
2023-03-01T23:06:18.106Z,34.33
2023-03-01T23:07:21.758Z,34.34
2023-03-01T23:08:25.390Z,34.31
2023-03-01T23:09:31.721Z,34.31
2023-03-01T23:10:35.274Z,34.31
2023-03-01T23:11:38.890Z,34.31
2023-03-01T23:12:42.870Z,34.18
2023-03-01T23:13:46.492Z,34.29
2023-03-01T23:14:50.273Z,34.29
2023-03-01T23:15:55.270Z,34.27
2023-03-01T23:16:59.068Z,34.28
2023-03-01T23:18:02.711Z,34.24
2023-03-01T23:19:07.996Z,34.25
2023-03-01T23:20:12.568Z,34.26
2023-03-01T23:21:18.465Z,34.26
2023-03-01T23:22:22.321Z,34.27
2023-03-01T23:23:26.080Z,34.28
2023-03-01T23:24:29.836Z,34.29
2023-03-01T23:25:33.432Z,34.22
2023-03-01T23:26:37.045Z,34.27
2023-03-01T23:27:40.741Z,34.27
2023-03-01T23:28:44.907Z,34.30
2023-03-01T23:29:48.532Z,34.29
2023-03-01T23:30:59.184Z,34.10
2023-03-01T23:32:03.359Z,34.29
2023-03-01T23:33:07.084Z,34.28
2023-03-01T23:34:12.362Z,34.27
2023-03-01T23:35:15.997Z,34.27
2023-03-01T23:36:22.094Z,34.28
2023-03-01T23:37:31.108Z,34.26
2023-03-01T23:38:34.983Z,34.25
2023-03-01T23:39:38.960Z,34.26
2023-03-01T23:40:42.692Z,34.25
2023-03-01T23:41:46.533Z,34.25
2023-03-01T23:42:50.161Z,34.24
2023-03-01T23:43:55.401Z,34.25
2023-03-01T23:44:59.068Z,34.25
2023-03-01T23:46:02.782Z,34.23
2023-03-01T23:47:06.487Z,34.23
2023-03-01T23:48:11.546Z,34.25
2023-03-01T23:49:18.475Z,34.25
2023-03-01T23:50:23.232Z,34.25
2023-03-01T23:51:28.591Z,34.24
2023-03-01T23:52:36.917Z,34.23
2023-03-01T23:53:43.176Z,34.25
2023-03-01T23:54:46.761Z,34.15
2023-03-01T23:55:52.353Z,34.27
2023-03-01T23:56:56.030Z,34.28
2023-03-01T23:57:59.653Z,34.27
2023-03-01T23:59:04.882Z,34.27
